Time,TemperatureF,DewpointF,PressureIn,WindDirection,WindDirectionDegrees,WindSpeedMPH,WindSpeedGustMPH,Humidity,HourlyPrecipIn,Conditions,Clouds,dailyrainin,SoftwareType,DateUTC
2013-06-20 00:11:00,48.0,45.0,30.09,WNW,296,0.0,0.0,88,0.00,,,-99.99,,2013-06-20 04:11:00,
2013-06-20 00:43:00,47.0,44.0,30.10,WNW,296,0.0,0.0,90,0.00,,,-99.99,,2013-06-20 04:43:00,
2013-06-20 01:02:00,47.0,45.0,30.10,WNW,296,0.0,0.0,91,0.00,,,-99.99,,2013-06-20 05:02:00,
2013-06-20 01:12:00,46.0,44.0,30.10,WNW,296,0.0,0.0,91,0.00,,,-99.99,,2013-06-20 05:12:00,
2013-06-20 01:22:00,46.0,44.0,30.11,WNW,296,0.0,0.0,91,0.00,,,-99.99,,2013-06-20 05:22:00,
2013-06-20 02:22:00,45.0,43.0,30.12,WNW,296,0.0,0.0,93,0.00,,,-99.99,,2013-06-20 06:22:00,
2013-06-20 02:34:00,45.0,43.0,30.13,WNW,296,0.0,0.0,94,0.00,,,-99.99,,2013-06-20 06:34:00,
2013-06-20 02:43:00,45.0,44.0,30.13,WNW,296,0.0,0.0,95,0.00,,,-99.99,,2013-06-20 06:43:00,
2013-06-20 03:01:00,46.0,44.0,30.13,WNW,296,0.0,0.0,94,0.00,,,-99.99,,2013-06-20 07:01:00,
2013-06-20 03:12:00,45.0,43.0,30.13,WNW,296,0.0,0.0,93,0.00,,,-99.99,,2013-06-20 07:12:00,
2013-06-20 04:11:00,44.0,42.0,30.14,WNW,296,0.0,0.0,94,0.00,,,-99.99,,2013-06-20 08:11:00,
2013-06-20 05:02:00,44.0,43.0,30.14,SSE,168,0.0,0.0,95,0.00,,,-99.99,,2013-06-20 09:02:00,
2013-06-20 05:12:00,44.0,42.0,30.15,SSE,167,0.0,0.0,94,0.00,,,-99.99,,2013-06-20 09:12:00,
2013-06-20 05:33:00,43.0,42.0,30.16,SSE,167,0.0,0.0,95,0.00,,,-99.99,,2013-06-20 09:33:00,
2013-06-20 06:02:00,44.0,43.0,30.17,SSE,167,0.0,0.0,96,0.00,,,-99.99,,2013-06-20 10:02:00,
2013-06-20 06:11:00,44.0,43.0,30.17,SSE,167,0.0,0.0,96,0.00,,,-99.99,,2013-06-20 10:11:00,
2013-06-20 06:22:00,47.0,46.0,30.18,SSE,167,0.0,0.0,95,0.00,,,-99.99,,2013-06-20 10:22:00,
2013-06-20 06:34:00,49.0,47.0,30.18,SSE,167,0.0,0.0,92,0.00,,,-99.99,,2013-06-20 10:34:00,
2013-06-20 06:43:00,50.0,47.0,30.19,NW,324,0.0,0.0,90,0.00,,,-99.99,,2013-06-20 10:43:00,
2013-06-20 06:53:00,51.0,47.0,30.19,East,81,0.0,0.0,87,0.00,,,-99.99,,2013-06-20 10:53:00,
2013-06-20 07:02:00,54.0,49.0,30.19,NNE,12,0.0,0.0,83,0.00,,,-99.99,,2013-06-20 11:02:00,
2013-06-20 07:12:00,54.0,49.0,30.19,NNE,12,0.0,0.0,83,0.00,,,-99.99,,2013-06-20 11:12:00,
2013-06-20 07:22:00,55.0,49.0,30.19,NNW,336,0.0,0.0,81,0.00,,,-99.99,,2013-06-20 11:22:00,
2013-06-20 07:34:00,56.0,50.0,30.20,NNW,330,0.0,0.0,81,0.00,,,-99.99,,2013-06-20 11:34:00,
2013-06-20 07:43:00,58.0,51.0,30.20,NNW,330,0.0,0.0,77,0.00,,,-99.99,,2013-06-20 11:43:00,
2013-06-20 07:53:00,60.0,51.0,30.20,NNW,328,0.0,0.0,73,0.00,,,-99.99,,2013-06-20 11:53:00,
2013-06-20 08:02:00,61.0,51.0,30.21,NNW,328,0.0,0.0,70,0.00,,,-99.99,,2013-06-20 12:02:00,
2013-06-20 08:12:00,63.0,52.0,30.21,NNW,328,0.0,0.0,67,0.00,,,-99.99,,2013-06-20 12:12:00,
2013-06-20 08:22:00,65.0,53.0,30.21,NNW,328,0.0,0.0,64,0.00,,,-99.99,,2013-06-20 12:22:00,
2013-06-20 08:34:00,66.0,53.0,30.21,NNW,328,0.0,0.0,64,0.00,,,-99.99,,2013-06-20 12:34:00,
2013-06-20 09:02:00,68.0,55.0,30.21,NNW,328,0.0,0.0,63,0.00,,,-99.99,,2013-06-20 13:02:00,
2013-06-20 09:22:00,72.0,54.0,30.21,NNW,328,0.0,0.0,53,0.00,,,-99.99,,2013-06-20 13:22:00,
2013-06-20 09:33:00,72.0,53.0,30.21,East,91,0.0,0.0,51,0.00,,,-99.99,,2013-06-20 13:33:00,
2013-06-20 09:53:00,73.0,53.0,30.20,NNE,14,0.0,0.0,50,0.00,,,-99.99,,2013-06-20 13:53:00,
2013-06-20 10:02:00,74.0,51.0,30.20,NNW,344,0.0,0.0,45,0.00,,,-99.99,,2013-06-20 14:02:00,
2013-06-20 11:11:00,74.0,47.0,30.20,West,279,0.0,0.0,39,0.00,,,-99.99,,2013-06-20 15:11:00,
2013-06-20 11:22:00,74.0,46.0,30.19,West,272,0.0,0.0,37,0.00,,,-99.99,,2013-06-20 15:22:00,
2013-06-20 11:33:00,74.0,47.0,30.19,SSE,149,0.0,0.0,38,0.00,,,-99.99,,2013-06-20 15:33:00,
2013-06-20 11:53:00,74.0,45.0,30.19,SW,222,5.0,9.0,36,0.00,,,-99.99,,2013-06-20 15:53:00,
2013-06-20 12:12:00,74.0,47.0,30.19,West,272,0.0,8.0,38,0.00,,,-99.99,,2013-06-20 16:12:00,
2013-06-20 12:22:00,75.0,50.0,30.19,West,262,0.0,12.0,41,0.00,,,-99.99,,2013-06-20 16:22:00,
2013-06-20 13:02:00,75.0,45.0,30.19,South,180,11.0,14.0,35,0.00,,,-99.99,,2013-06-20 17:02:00,
2013-06-20 13:12:00,76.0,46.0,30.19,SSW,213,1.0,11.0,35,0.00,,,-99.99,,2013-06-20 17:12:00,
2013-06-20 13:22:00,76.0,48.0,30.19,South,177,2.0,12.0,37,0.00,,,-99.99,,2013-06-20 17:22:00,
2013-06-20 14:01:00,76.0,46.0,30.19,West,280,1.0,14.0,35,0.00,,,-99.99,,2013-06-20 18:01:00,
2013-06-20 14:11:00,75.0,47.0,30.19,SSW,193,0.0,14.0,37,0.00,,,-99.99,,2013-06-20 18:11:00,
2013-06-20 14:22:00,74.0,47.0,30.18,SSW,201,6.0,9.0,38,0.00,,,-99.99,,2013-06-20 18:22:00,
2013-06-20 14:33:00,75.0,48.0,30.18,WSW,245,5.0,12.0,39,0.00,,,-99.99,,2013-06-20 18:33:00,
2013-06-20 14:43:00,75.0,48.0,30.18,SSE,148,5.0,16.0,38,0.00,,,-99.99,,2013-06-20 18:43:00,
2013-06-20 15:11:00,76.0,49.0,30.18,SW,214,7.0,19.0,39,0.00,,,-99.99,,2013-06-20 19:11:00,
2013-06-20 15:34:00,75.0,49.0,30.18,SSW,212,9.0,13.0,40,0.00,,,-99.99,,2013-06-20 19:34:00,
2013-06-20 15:43:00,75.0,49.0,30.18,SSW,210,5.0,14.0,40,0.00,,,-99.99,,2013-06-20 19:43:00,
2013-06-20 16:11:00,75.0,50.0,30.18,SSW,207,6.0,14.0,41,0.00,,,-99.99,,2013-06-20 20:11:00,
2013-06-20 16:33:00,75.0,50.0,30.18,SSW,207,1.0,14.0,41,0.00,,,-99.99,,2013-06-20 20:33:00,